General Abelardo L. Rodriguez International Airport


Codes: MMTJ/TIJ
Name: General Abelardo L. Rodriguez International Airport
City: Tijuana
Country: Mexico
Elevation: 489 ft.
Website:
Wikipedia:

Photos at General Abelardo L. Rodriguez International Airport


   Photos courtesy of SpottingLog. You can add your own sightings and photos by signing up for a free trial today.



No photos found.

Weather at General Abelardo L. Rodriguez International Airport


Time (UTC)DescriptionTempratureWindCloud coverageVisibilityPressureHumidity
21-Jun-2024 12:00Scattered Clouds17°C4 mph, NW50%10000m1008hPa84%
21-Jun-2024 15:00Scattered Clouds19°C4 mph, NW25%10000m1008hPa72%
21-Jun-2024 18:00Clear Sky26°C7 mph, NW0%10000m1007hPa39%
21-Jun-2024 21:00Clear Sky29°C7 mph, W0%10000m1006hPa32%
22-Jun-2024 00:00Clear Sky29°C7 mph, W0%10000m1005hPa33%
22-Jun-2024 03:00Clear Sky24°C4 mph, W0%10000m1007hPa48%
22-Jun-2024 06:00Clear Sky22°C4 mph, W0%10000m1008hPa59%
22-Jun-2024 09:00Clear Sky21°C2 mph, W0%10000m1007hPa63%
22-Jun-2024 12:00Clear Sky21°C2 mph, NW1%10000m1007hPa67%
22-Jun-2024 15:00Broken Clouds24°C2 mph, W73%10000m1008hPa54%
22-Jun-2024 18:00Scattered Clouds30°C7 mph, W35%10000m1008hPa34%
22-Jun-2024 21:00Clear Sky33°C7 mph, W0%10000m1008hPa26%
23-Jun-2024 00:00Clear Sky32°C7 mph, W0%10000m1008hPa28%
23-Jun-2024 03:00Clear Sky27°C4 mph, W0%10000m1009hPa38%
23-Jun-2024 06:00Clear Sky26°C2 mph, W0%10000m1011hPa44%
23-Jun-2024 09:00Clear Sky25°C2 mph, W0%10000m1010hPa49%
23-Jun-2024 12:00Clear Sky24°C2 mph, NW1%10000m1010hPa51%
23-Jun-2024 15:00Clear Sky27°C2 mph, NW0%10000m1011hPa40%
23-Jun-2024 18:00Clear Sky31°C7 mph, W0%10000m1011hPa27%
23-Jun-2024 21:00Clear Sky32°C9 mph, W0%10000m1011hPa23%
24-Jun-2024 00:00Clear Sky32°C7 mph, NW1%10000m1009hPa18%
24-Jun-2024 03:00Clear Sky28°C4 mph, W2%10000m1010hPa27%
24-Jun-2024 06:00Clear Sky24°C4 mph, SW1%10000m1011hPa44%
24-Jun-2024 09:00Few Clouds23°C2 mph, NW23%10000m1011hPa48%
24-Jun-2024 12:00Few Clouds23°C2 mph, NW22%10000m1011hPa47%
24-Jun-2024 15:00Clear Sky26°C4 mph, NW2%10000m1011hPa39%
24-Jun-2024 18:00Clear Sky30°C7 mph, W1%10000m1011hPa26%
24-Jun-2024 21:00Clear Sky32°C9 mph, W0%10000m1010hPa20%
25-Jun-2024 00:00Clear Sky31°C7 mph, NW0%10000m1010hPa22%
25-Jun-2024 03:00Clear Sky26°C7 mph, W0%10000m1010hPa34%
25-Jun-2024 06:00Clear Sky24°C4 mph, W0%10000m1011hPa46%
25-Jun-2024 09:00Clear Sky22°C4 mph, SW0%10000m1011hPa56%
25-Jun-2024 12:00Clear Sky22°C2 mph, W0%10000m1011hPa56%
25-Jun-2024 15:00Clear Sky24°C2 mph, W2%10000m1011hPa47%
25-Jun-2024 18:00Few Clouds29°C7 mph, W21%10000m1011hPa29%
25-Jun-2024 21:00Few Clouds31°C9 mph, W12%10000m1010hPa21%
26-Jun-2024 00:00Few Clouds30°C7 mph, W11%10000m1010hPa20%
26-Jun-2024 03:00Clear Sky25°C7 mph, SW8%10000m1011hPa40%
26-Jun-2024 06:00Clear Sky22°C4 mph, W8%10000m1013hPa51%
26-Jun-2024 09:00Clear Sky22°C2 mph, SW8%10000m1012hPa56%